Time;durP1;ratioP1;P1;durP2;ratioP2;P2;SDS_P1;SDS_P2;PMS_P1;PMS_P2;Temp;Humidity;BMP_temperature;BMP_pressure;BME280_temperature;BME280_humidity;BME280_pressure;Samples;Min_cycle;Max_cycle;Signal;HPM_P1;HPM_P2
2023/08/21 00:00:27;;;;;;;43.88;39.17;;;;;;;30.04;nan;97761.81;4817588;29;20050;-65
2023/08/21 00:02:56;;;;;;;46.88;40.75;;;;;;;30.02;nan;97768.72;4836167;29;20676;-67
2023/08/21 00:05:26;;;;;;;44.42;39.28;;;;;;;30.13;nan;97778.88;4862930;29;20053;-67
2023/08/21 00:07:55;;;;;;;46.53;40.97;;;;;;;30.07;nan;97761.13;4866031;29;20169;-67
2023/08/21 00:10:25;;;;;;;45.55;39.58;;;;;;;30.06;nan;97773.16;4832473;29;20065;-67
2023/08/21 00:12:54;;;;;;;45.00;40.20;;;;;;;30.08;nan;97784.56;4865608;29;20788;-67
2023/08/21 00:15:23;;;;;;;47.78;40.92;;;;;;;30.06;nan;97783.28;4832937;29;20102;-67
2023/08/21 00:18:13;;;;;;;47.78;39.42;;;;;;;30.09;nan;97797.09;4837964;29;20076;-68
2023/08/21 00:20:42;;;;;;;44.47;39.58;;;;;;;30.09;nan;97791.63;4836889;29;20144;-65
2023/08/21 00:23:12;;;;;;;43.97;38.95;;;;;;;30.06;nan;97796.94;4835432;29;20042;-66
2023/08/21 00:25:46;;;;;;;48.15;40.78;;;;;;;30.05;nan;97798.13;4837539;29;20054;-65
2023/08/21 00:28:17;;;;;;;47.92;40.53;;;;;;;29.99;nan;97792.06;4836296;29;20049;-66
2023/08/21 00:30:46;;;;;;;55.40;42.20;;;;;;;29.97;nan;97794.34;4844260;29;20067;-66
2023/08/21 00:33:16;;;;;;;46.25;40.35;;;;;;;30.05;nan;97795.38;4856478;29;20054;-65
2023/08/21 00:35:45;;;;;;;55.63;42.75;;;;;;;30.03;nan;97798.44;4840759;29;20041;-66
2023/08/21 00:38:17;;;;;;;47.97;39.65;;;;;;;29.97;nan;97802.53;4855333;29;20343;-66
2023/08/21 00:40:46;;;;;;;51.13;42.28;;;;;;;29.98;nan;97795.13;4868814;29;20057;-67
2023/08/21 00:43:16;;;;;;;48.60;41.45;;;;;;;30.00;nan;97790.16;4847420;29;20061;-66
2023/08/21 00:45:47;;;;;;;48.00;39.28;;;;;;;30.02;nan;97798.78;4846285;29;20045;-66
2023/08/21 00:48:18;;;;;;;45.30;39.60;;;;;;;30.05;nan;97815.28;4846250;29;20056;-67
2023/08/21 00:50:48;;;;;;;47.63;39.42;;;;;;;30.04;nan;97816.44;4862811;29;20201;-68
2023/08/21 00:53:18;;;;;;;45.80;39.30;;;;;;;30.07;nan;97815.75;4845299;29;20245;-67
2023/08/21 00:55:48;;;;;;;51.75;39.95;;;;;;;30.00;nan;97807.31;4852951;29;20144;-66
2023/08/21 00:58:17;;;;;;;48.70;39.08;;;;;;;30.08;nan;97822.00;4854590;29;20064;-68
2023/08/21 01:00:50;;;;;;;46.80;38.90;;;;;;;30.09;nan;97820.88;4833258;29;20065;-66
2023/08/21 01:03:20;;;;;;;47.08;40.15;;;;;;;30.09;nan;97829.88;4852562;29;20370;-67
2023/08/21 01:05:50;;;;;;;49.25;39.17;;;;;;;30.13;nan;97822.59;4822322;29;20129;-66
2023/08/21 01:08:42;;;;;;;47.40;38.10;;;;;;;30.16;nan;97818.34;4838758;29;20687;-66
2023/08/21 01:11:21;;;;;;;45.88;37.85;;;;;;;30.25;nan;97824.50;4855056;29;20128;-67
2023/08/21 01:14:14;;;;;;;47.25;37.95;;;;;;;30.26;nan;97824.16;4856525;29;20098;-65
2023/08/21 01:16:47;;;;;;;46.28;38.25;;;;;;;30.30;nan;97821.53;4870095;29;20117;-66
2023/08/21 01:19:42;;;;;;;44.78;38.08;;;;;;;30.34;nan;97825.97;4869027;29;20070;-67
2023/08/21 01:22:12;;;;;;;42.83;37.58;;;;;;;30.38;nan;97823.34;4841092;29;20156;-66
2023/08/21 01:24:42;;;;;;;46.97;37.38;;;;;;;30.40;nan;97812.09;4853766;29;20045;-67
2023/08/21 01:27:15;;;;;;;50.13;38.45;;;;;;;30.46;nan;97819.72;4853939;29;20057;-67
2023/08/21 01:29:45;;;;;;;48.90;37.25;;;;;;;30.51;nan;97813.22;4852770;29;20053;-67
2023/08/21 01:32:48;;;;;;;48.17;37.92;;;;;;;30.57;nan;97822.81;4838858;29;20037;-67
2023/08/21 01:35:20;;;;;;;42.42;36.13;;;;;;;30.61;nan;97819.03;4841479;29;20084;-68
2023/08/21 01:37:51;;;;;;;38.53;34.33;;;;;;;30.65;nan;97809.00;4853355;29;20061;-67
2023/08/21 01:40:24;;;;;;;38.92;33.75;;;;;;;30.73;nan;97827.19;4850187;29;20045;-67
2023/08/21 01:42:54;;;;;;;37.90;33.10;;;;;;;30.78;nan;97828.91;4853678;29;20146;-67
2023/08/21 01:45:23;;;;;;;38.78;34.47;;;;;;;30.84;nan;97830.25;4856144;29;20052;-67
2023/08/21 01:47:53;;;;;;;41.35;34.20;;;;;;;30.89;nan;97832.72;4840111;29;20065;-67
2023/08/21 01:50:22;;;;;;;38.72;33.97;;;;;;;31.01;nan;97838.22;4850737;29;20049;-67
2023/08/21 01:52:51;;;;;;;38.95;31.48;;;;;;;31.02;nan;97834.34;4853742;29;20041;-67
2023/08/21 01:55:21;;;;;;;35.17;31.33;;;;;;;31.07;nan;97838.78;4853188;29;20062;-67
2023/08/21 01:57:50;;;;;;;35.45;31.65;;;;;;;31.10;nan;97840.81;4854361;29;20141;-67
2023/08/21 02:00:20;;;;;;;33.25;29.65;;;;;;;31.16;nan;97842.94;4866575;29;20049;-67
2023/08/21 02:02:49;;;;;;;32.78;29.15;;;;;;;31.17;nan;97841.00;4836673;29;20042;-67
2023/08/21 02:05:19;;;;;;;31.38;27.17;;;;;;;31.30;nan;97844.47;4853839;29;20049;-67
2023/08/21 02:07:49;;;;;;;31.95;28.02;;;;;;;31.30;nan;97842.53;4837490;29;20086;-68
2023/08/21 02:10:18;;;;;;;32.95;27.67;;;;;;;31.38;nan;97847.06;4852740;29;20045;-67
2023/08/21 02:13:08;;;;;;;31.75;27.77;;;;;;;31.49;nan;97855.56;4853139;29;20053;-67
2023/08/21 02:15:58;;;;;;;33.22;27.95;;;;;;;31.60;nan;97845.75;4851712;29;20056;-67
2023/08/21 02:18:48;;;;;;;32.83;26.77;;;;;;;31.71;nan;97857.75;4851335;29;20726;-67
2023/08/21 02:21:40;;;;;;;30.88;27.67;;;;;;;31.95;nan;97854.88;4851224;29;20049;-67
2023/08/21 02:24:30;;;;;;;29.13;25.92;;;;;;;32.25;nan;97849.78;4851655;29;20060;-68
2023/08/21 02:27:20;;;;;;;28.02;25.08;;;;;;;32.66;nan;97856.66;4852486;29;20186;-67
2023/08/21 02:30:10;;;;;;;30.92;26.70;;;;;;;32.79;nan;97866.34;4852143;29;20045;-67
2023/08/21 02:33:00;;;;;;;30.45;27.17;;;;;;;32.92;nan;97861.53;4851511;29;20057;-67
2023/08/21 02:35:51;;;;;;;39.10;28.10;;;;;;;32.91;nan;97871.69;4863092;29;20045;-65
2023/08/21 02:38:41;;;;;;;32.75;26.73;;;;;;;33.18;nan;97864.47;4850275;29;20057;-66
2023/08/21 02:41:31;;;;;;;33.22;27.00;;;;;;;33.28;nan;97877.59;4837105;29;20751;-67
2023/08/21 02:44:21;;;;;;;36.17;27.73;;;;;;;33.33;nan;97876.50;4851522;29;20056;-67
2023/08/21 02:47:11;;;;;;;37.78;28.38;;;;;;;33.13;nan;97885.88;4862054;29;20057;-66
2023/08/21 02:50:02;;;;;;;35.58;28.08;;;;;;;33.24;nan;97884.94;4837981;29;20057;-67
2023/08/21 02:52:52;;;;;;;34.67;28.02;;;;;;;33.29;nan;97881.13;4851752;29;20056;-67
2023/08/21 02:55:41;;;;;;;36.17;27.13;;;;;;;33.27;nan;97876.00;4837266;29;20537;-68
2023/08/21 02:58:33;;;;;;;30.83;27.02;;;;;;;33.11;nan;97890.91;4852816;29;20057;-66
2023/08/21 03:01:23;;;;;;;32.22;24.38;;;;;;;33.01;nan;97899.72;4851074;29;20057;-67
2023/08/21 03:04:07;;;;;;;29.85;25.85;;;;;;;33.14;nan;97895.69;4846143;29;20066;-66
2023/08/21 03:06:37;;;;;;;33.17;26.63;;;;;;;33.20;nan;97902.50;4835634;29;20128;-66
2023/08/21 03:09:06;;;;;;;29.15;25.42;;;;;;;33.19;nan;97899.00;4850536;29;20425;-66
2023/08/21 03:11:36;;;;;;;30.33;26.27;;;;;;;33.15;nan;97913.78;4862461;29;20049;-66
2023/08/21 03:14:06;;;;;;;31.10;26.58;;;;;;;32.96;nan;97903.53;4832450;29;20495;-67
2023/08/21 03:16:35;;;;;;;32.03;26.65;;;;;;;33.01;nan;97906.00;4870064;29;20591;-68
2023/08/21 03:19:05;;;;;;;38.47;30.13;;;;;;;33.14;nan;97912.16;4849275;29;20046;-67
2023/08/21 03:21:35;;;;;;;34.13;29.85;;;;;;;33.23;nan;97907.28;4865423;29;20058;-65
2023/08/21 03:24:07;;;;;;;38.88;29.38;;;;;;;33.16;nan;97907.94;4854410;29;20057;-65
2023/08/21 03:26:37;;;;;;;33.95;28.48;;;;;;;33.29;nan;97912.13;4854434;29;20378;-65
2023/08/21 03:29:06;;;;;;;29.23;26.08;;;;;;;33.36;nan;97898.56;4870027;29;20065;-65
2023/08/21 03:31:36;;;;;;;36.83;30.70;;;;;;;33.46;nan;97905.41;4877490;29;20053;-67
2023/08/21 03:34:05;;;;;;;46.47;31.05;;;;;;;33.44;nan;97899.50;4852776;29;20623;-66
2023/08/21 03:36:38;;;;;;;36.65;31.42;;;;;;;33.24;nan;97898.69;4838936;29;20140;-66
2023/08/21 03:39:08;;;;;;;;;;;;;;;33.44;nan;97896.75;4854392;29;20897;-67
2023/08/21 03:41:43;;;;;;;36.80;30.02;;;;;;;33.57;nan;97898.19;4850091;29;19928;-68
2023/08/21 03:44:14;;;;;;;40.80;31.48;;;;;;;33.57;nan;97892.69;4819491;29;20065;-68
2023/08/21 03:46:43;;;;;;;39.53;31.63;;;;;;;33.44;nan;97883.00;4848570;29;20046;-68
2023/08/21 03:49:12;;;;;;;39.13;32.22;;;;;;;33.59;nan;97886.84;4834773;29;20142;-67
2023/08/21 03:51:42;;;;;;;35.08;30.98;;;;;;;33.57;nan;97881.69;4828333;29;20528;-67
2023/08/21 03:54:11;;;;;;;42.50;30.58;;;;;;;33.71;nan;97887.50;4850129;29;20068;-67
2023/08/21 03:56:41;;;;;;;27.80;24.70;;;;;;;33.96;nan;97881.66;4832906;29;20060;-68
2023/08/21 03:59:11;;;;;;;28.83;22.77;;;;;;;33.98;nan;97893.09;4850583;29;20062;-67
2023/08/21 04:01:41;;;;;;;25.67;22.95;;;;;;;33.71;nan;97890.25;4835187;29;20661;-67
2023/08/21 04:04:11;;;;;;;24.45;21.85;;;;;;;33.87;nan;97876.38;4847201;29;20050;-66
2023/08/21 04:06:40;;;;;;;27.35;22.65;;;;;;;34.10;nan;97882.69;4817402;29;20061;-66
2023/08/21 04:09:10;;;;;;;25.55;22.85;;;;;;;33.98;nan;97877.38;4818035;29;20535;-66
2023/08/21 04:11:40;;;;;;;26.70;22.77;;;;;;;34.05;nan;97876.69;4850208;29;20118;-67
2023/08/21 04:14:09;;;;;;;23.13;20.73;;;;;;;34.24;nan;97882.97;4835696;29;20061;-68
2023/08/21 04:16:38;;;;;;;41.65;22.20;;;;;;;34.46;nan;97897.06;4836779;29;20050;-67
2023/08/21 04:19:08;;;;;;;23.05;19.95;;;;;;;34.28;nan;97886.56;4850295;29;20145;-66
2023/08/21 04:21:38;;;;;;;22.65;20.35;;;;;;;34.36;nan;97876.47;4835339;29;20050;-67
2023/08/21 04:24:07;;;;;;;25.75;21.67;;;;;;;34.50;nan;97886.91;4833628;29;20486;-67
2023/08/21 04:26:37;;;;;;;25.15;22.52;;;;;;;34.55;nan;97884.63;4848482;29;20138;-66
2023/08/21 04:29:07;;;;;;;28.58;22.85;;;;;;;34.57;nan;97878.75;4831820;29;20050;-66
2023/08/21 04:31:37;;;;;;;28.77;23.67;;;;;;;34.46;nan;97875.06;4865052;29;20061;-67
2023/08/21 04:34:08;;;;;;;26.17;23.42;;;;;;;34.50;nan;97870.41;4833753;29;20054;-68
2023/08/21 04:36:37;;;;;;;28.30;22.50;;;;;;;34.75;nan;97879.84;4835153;29;20502;-68
2023/08/21 04:39:06;;;;;;;23.88;21.33;;;;;;;34.98;nan;97879.75;4833792;29;20138;-66
2023/08/21 04:41:36;;;;;;;23.55;21.10;;;;;;;34.94;nan;97878.94;4824066;29;20069;-66
2023/08/21 04:44:06;;;;;;;22.85;19.85;;;;;;;34.98;nan;97872.31;4833974;29;20061;-66
2023/08/21 04:46:36;;;;;;;19.63;17.73;;;;;;;35.30;nan;97877.47;4831894;29;20547;-67
2023/08/21 04:49:06;;;;;;;22.98;18.83;;;;;;;35.36;nan;97878.72;4864763;29;20065;-68
2023/08/21 04:51:35;;;;;;;22.00;19.80;;;;;;;35.41;nan;97875.59;4837122;29;20049;-68
2023/08/21 04:54:05;;;;;;;21.20;18.95;;;;;;;35.64;nan;97879.06;4840993;29;20774;-69
2023/08/21 04:56:35;;;;;;;20.42;17.88;;;;;;;36.10;nan;97879.53;4848589;29;20149;-68
2023/08/21 04:59:04;;;;;;;23.05;19.10;;;;;;;36.09;nan;97875.16;4835136;29;20086;-69
2023/08/21 05:01:34;;;;;;;25.00;19.13;;;;;;;35.89;nan;97868.31;4835534;29;20140;-70
2023/08/21 05:04:04;;;;;;;21.38;19.17;;;;;;;36.06;nan;97872.38;4821015;29;20070;-69
2023/08/21 05:06:35;;;;;;;20.75;18.42;;;;;;;35.93;nan;97885.66;4856531;29;20053;-68
2023/08/21 05:09:04;;;;;;;22.80;19.42;;;;;;;36.03;nan;97871.16;4834493;29;20049;-68
2023/08/21 05:11:35;;;;;;;23.48;20.30;;;;;;;36.21;nan;97882.38;4849021;29;20244;-69
2023/08/21 05:14:06;;;;;;;22.15;19.52;;;;;;;36.60;nan;97877.22;4850273;29;20250;-69
2023/08/21 05:16:35;;;;;;;26.63;20.55;;;;;;;36.22;nan;97864.66;4832583;29;20622;-68
2023/08/21 05:19:05;;;;;;;23.15;20.27;;;;;;;36.22;nan;97861.91;4833692;29;20465;-68
2023/08/21 05:21:34;;;;;;;24.85;20.95;;;;;;;36.27;nan;97865.13;4816661;29;20463;-69
2023/08/21 05:24:04;;;;;;;23.55;19.20;;;;;;;36.24;nan;97868.66;4834846;29;20157;-68
2023/08/21 05:26:36;;;;;;;23.15;20.45;;;;;;;36.07;nan;97868.47;4862888;29;20056;-68
2023/08/21 05:29:07;;;;;;;24.33;19.90;;;;;;;36.02;nan;97862.13;4848939;29;20050;-68
2023/08/21 05:31:36;;;;;;;28.60;21.83;;;;;;;35.74;nan;97855.53;4841265;29;20053;-70
2023/08/21 05:34:06;;;;;;;23.85;21.27;;;;;;;35.77;nan;97860.28;4865853;29;20053;-71
2023/08/21 05:36:36;;;;;;;20.98;18.50;;;;;;;36.04;nan;97853.47;4855313;29;20058;-71
2023/08/21 05:39:08;;;;;;;18.15;16.45;;;;;;;36.32;nan;97859.25;4861320;29;20081;-70
2023/08/21 05:41:38;;;;;;;20.40;17.40;;;;;;;36.58;nan;97854.69;4864226;29;20057;-70
2023/08/21 05:44:07;;;;;;;18.02;16.35;;;;;;;36.69;nan;97850.84;4834222;29;20058;-70
2023/08/21 05:46:38;;;;;;;17.10;15.38;;;;;;;36.53;nan;97852.28;4856883;29;20513;-69
2023/08/21 05:49:07;;;;;;;15.73;14.18;;;;;;;36.87;nan;97842.66;4829839;29;20411;-72
2023/08/21 05:51:37;;;;;;;16.92;15.27;;;;;;;37.08;nan;97842.00;4829523;29;20053;-70
2023/08/21 05:54:08;;;;;;;18.20;16.38;;;;;;;36.81;nan;97841.47;4835767;29;20058;-71
2023/08/21 05:56:40;;;;;;;20.45;18.33;;;;;;;36.37;nan;97842.34;4829830;29;20086;-72
2023/08/21 05:59:11;;;;;;;23.73;17.27;;;;;;;36.52;nan;97840.47;4831110;29;20053;-71
2023/08/21 06:01:41;;;;;;;20.42;18.25;;;;;;;36.73;nan;97835.13;4842026;29;20058;-71
2023/08/21 06:04:11;;;;;;;22.80;19.73;;;;;;;36.84;nan;97837.91;4827044;29;20046;-71
2023/08/21 06:06:50;;;;;;;23.92;20.45;;;;;;;36.78;nan;97836.72;4825358;29;20060;-71
2023/08/21 06:09:20;;;;;;;29.08;24.70;;;;;;;36.29;nan;97832.41;4842959;29;20054;-71
2023/08/21 06:11:49;;;;;;;28.17;25.23;;;;;;;36.09;nan;97833.81;4841711;29;20058;-71
2023/08/21 06:14:20;;;;;;;28.17;25.38;;;;;;;35.73;nan;97823.63;4837746;29;20789;-70
2023/08/21 06:16:49;;;;;;;30.65;25.48;;;;;;;35.60;nan;97831.34;4824751;29;20080;-71
2023/08/21 06:19:19;;;;;;;28.20;25.02;;;;;;;35.49;nan;97824.97;4846434;29;20061;-73
2023/08/21 06:21:48;;;;;;;28.38;25.42;;;;;;;35.18;nan;97828.16;4831388;29;20050;-72
2023/08/21 06:24:17;;;;;;;31.05;26.25;;;;;;;34.94;nan;97812.88;4828637;29;20057;-72
2023/08/21 06:26:53;;;;;;;32.60;27.77;;;;;;;34.86;nan;97823.00;4825788;29;20081;-71
2023/08/21 06:29:22;;;;;;;29.75;26.60;;;;;;;34.87;nan;97816.34;4843931;29;20057;-73
2023/08/21 06:31:52;;;;;;;27.98;24.98;;;;;;;34.70;nan;97811.38;4829736;29;20054;-72
2023/08/21 06:34:22;;;;;;;28.10;25.08;;;;;;;34.56;nan;97802.91;4837000;29;20637;-73
2023/08/21 06:36:52;;;;;;;30.17;25.15;;;;;;;34.60;nan;97810.06;4841742;29;20057;-73
2023/08/21 06:39:21;;;;;;;35.17;25.20;;;;;;;34.65;nan;97809.69;4842565;29;20049;-73
2023/08/21 06:41:51;;;;;;;28.35;23.30;;;;;;;34.72;nan;97801.59;4829453;29;20068;-69
2023/08/21 06:44:20;;;;;;;28.40;22.65;;;;;;;34.74;nan;97795.72;4841271;29;20069;-69
2023/08/21 06:46:50;;;;;;;23.90;21.38;;;;;;;34.99;nan;97798.78;4844166;29;20072;-68
2023/08/21 06:49:20;;;;;;;24.92;22.30;;;;;;;35.28;nan;97789.69;4862317;29;20057;-69
2023/08/21 06:51:49;;;;;;;25.40;21.58;;;;;;;35.38;nan;97794.53;4851731;29;20109;-71
2023/08/21 06:54:19;;;;;;;25.75;22.25;;;;;;;35.34;nan;97787.41;4849673;29;20122;-68
2023/08/21 06:56:48;;;;;;;22.77;19.83;;;;;;;35.42;nan;97781.59;4849985;29;20061;-69
2023/08/21 06:59:18;;;;;;;22.58;19.75;;;;;;;35.48;nan;97780.09;4849861;29;20609;-68
2023/08/21 07:01:47;;;;;;;23.15;20.35;;;;;;;35.43;nan;97774.91;4852620;29;20067;-68
2023/08/21 07:04:16;;;;;;;22.20;20.10;;;;;;;35.60;nan;97773.50;4848341;29;20057;-68
2023/08/21 07:06:46;;;;;;;22.90;20.50;;;;;;;35.82;nan;97777.25;4853121;29;20052;-70
2023/08/21 07:09:15;;;;;;;23.55;20.25;;;;;;;35.80;nan;97783.19;4852941;29;20446;-68
2023/08/21 07:11:45;;;;;;;23.60;20.75;;;;;;;35.78;nan;97773.69;4851667;29;20117;-70
2023/08/21 07:14:15;;;;;;;22.50;19.20;;;;;;;35.64;nan;97768.00;4817944;29;20060;-73
2023/08/21 07:16:44;;;;;;;22.70;19.20;;;;;;;35.69;nan;97764.94;4850816;29;20184;-73
2023/08/21 07:19:14;;;;;;;22.55;20.15;;;;;;;35.76;nan;97763.03;4850271;29;20144;-71
2023/08/21 07:21:43;;;;;;;23.23;19.90;;;;;;;35.87;nan;97763.13;4850908;29;20053;-71
2023/08/21 07:24:12;;;;;;;22.45;20.10;;;;;;;35.79;nan;97764.25;4851642;29;20053;-70
2023/08/21 07:26:43;;;;;;;21.92;19.67;;;;;;;35.79;nan;97758.75;4848714;29;20053;-67
2023/08/21 07:29:12;;;;;;;22.92;19.90;;;;;;;35.82;nan;97760.72;4856297;29;20049;-67
2023/08/21 07:31:42;;;;;;;33.53;19.67;;;;;;;35.84;nan;97753.69;4866413;29;20385;-68
2023/08/21 07:34:11;;;;;;;24.50;19.77;;;;;;;35.79;nan;97758.75;4849794;29;20060;-69
2023/08/21 07:36:40;;;;;;;22.85;20.65;;;;;;;35.59;nan;97750.66;4854926;29;20269;-67
2023/08/21 07:39:10;;;;;;;22.63;20.45;;;;;;;35.43;nan;97755.63;4859030;29;20117;-66
2023/08/21 07:41:39;;;;;;;25.70;21.02;;;;;;;35.41;nan;97754.41;4851997;29;20082;-66
2023/08/21 07:44:08;;;;;;;26.38;22.10;;;;;;;35.33;nan;97752.78;4847206;29;20157;-67
2023/08/21 07:46:38;;;;;;;24.05;20.65;;;;;;;35.49;nan;97745.88;4849368;29;20500;-70
2023/08/21 07:49:07;;;;;;;24.27;20.52;;;;;;;35.79;nan;97748.50;4848896;29;20049;-65
2023/08/21 07:51:37;;;;;;;23.15;20.70;;;;;;;35.88;nan;97757.25;4849860;29;20050;-65
2023/08/21 07:54:07;;;;;;;24.45;21.88;;;;;;;35.76;nan;97749.25;4845577;29;20129;-65
2023/08/21 07:56:39;;;;;;;26.42;22.15;;;;;;;35.64;nan;97744.03;4840784;29;20154;-64
2023/08/21 07:59:09;;;;;;;27.70;22.30;;;;;;;35.57;nan;97742.00;4839269;29;20053;-69
2023/08/21 08:01:38;;;;;;;23.65;21.00;;;;;;;35.43;nan;97739.13;4848822;29;20059;-64
2023/08/21 08:04:10;;;;;;;25.58;21.77;;;;;;;35.32;nan;97743.72;4849803;29;20045;-64
2023/08/21 08:06:40;;;;;;;26.60;22.00;;;;;;;35.17;nan;97730.19;4853575;29;20057;-65
2023/08/21 08:09:10;;;;;;;23.70;21.33;;;;;;;35.11;nan;97732.44;4847434;29;20053;-68
2023/08/21 08:11:39;;;;;;;23.60;21.38;;;;;;;35.21;nan;97723.56;4855668;29;20448;-67
2023/08/21 08:14:09;;;;;;;25.65;20.38;;;;;;;35.26;nan;97719.66;4862664;29;20056;-67
2023/08/21 08:16:38;;;;;;;26.73;22.13;;;;;;;35.28;nan;97715.34;4858334;29;20085;-69
2023/08/21 08:19:08;;;;;;;26.67;21.30;;;;;;;35.21;nan;97709.78;4848483;29;20045;-66
2023/08/21 08:21:37;;;;;;;23.92;21.42;;;;;;;35.15;nan;97714.84;4850776;29;20124;-66
2023/08/21 08:24:06;;;;;;;23.05;20.73;;;;;;;35.12;nan;97704.56;4854327;29;20041;-65
2023/08/21 08:26:35;;;;;;;22.83;20.48;;;;;;;35.18;nan;97691.28;4860280;29;20053;-67
2023/08/21 08:29:05;;;;;;;21.70;19.40;;;;;;;35.25;nan;97691.34;4841559;29;20045;-64
2023/08/21 08:31:35;;;;;;;22.15;19.83;;;;;;;35.38;nan;97687.13;4855724;29;20057;-67
2023/08/21 08:34:04;;;;;;;25.77;21.27;;;;;;;35.35;nan;97670.56;4834333;29;20537;-67
2023/08/21 08:36:33;;;;;;;24.05;21.60;;;;;;;35.34;nan;97675.28;4852649;29;20153;-67
2023/08/21 08:39:03;;;;;;;25.25;21.38;;;;;;;35.38;nan;97672.56;4834102;29;20486;-68
2023/08/21 08:41:38;;;;;;;24.95;21.60;;;;;;;35.45;nan;97667.13;4852290;29;20587;-67
2023/08/21 08:44:09;;;;;;;25.27;21.60;;;;;;;35.37;nan;97668.22;4859548;29;20053;-66
2023/08/21 08:46:38;;;;;;;25.67;22.85;;;;;;;35.35;nan;97656.81;4859345;29;20068;-66
2023/08/21 08:49:08;;;;;;;25.52;21.67;;;;;;;35.44;nan;97654.53;4856950;29;20541;-65
2023/08/21 08:51:40;;;;;;;30.13;22.60;;;;;;;35.46;nan;97646.66;4854343;29;20053;-66
2023/08/21 08:54:12;;;;;;;31.10;23.17;;;;;;;35.46;nan;97643.91;4855967;29;20049;-66
2023/08/21 08:56:41;;;;;;;29.17;22.58;;;;;;;35.56;nan;97646.75;4843635;29;20062;-65
2023/08/21 08:59:10;;;;;;;31.77;23.83;;;;;;;35.71;nan;97646.88;4855449;29;20071;-65
2023/08/21 09:01:41;;;;;;;27.65;21.95;;;;;;;35.80;nan;97647.34;4856318;29;20080;-66
2023/08/21 09:04:11;;;;;;;27.75;23.10;;;;;;;35.82;nan;97651.28;4853042;29;20048;-66
2023/08/21 09:06:41;;;;;;;28.95;21.27;;;;;;;35.77;nan;97656.34;4848309;29;20056;-65
2023/08/21 09:09:12;;;;;;;24.58;21.85;;;;;;;35.71;nan;97647.69;4849152;29;20049;-66
2023/08/21 09:11:48;;;;;;;25.65;22.27;;;;;;;35.62;nan;97638.13;4851115;29;20041;-67
2023/08/21 09:14:26;;;;;;;28.63;22.67;;;;;;;35.64;nan;97625.56;4828198;29;20049;-66
2023/08/21 09:17:03;;;;;;;25.67;21.30;;;;;;;35.71;nan;97630.34;4834195;29;20549;-66
2023/08/21 09:19:36;;;;;;;25.40;22.50;;;;;;;35.73;nan;97620.50;4846606;29;20049;-63
2023/08/21 09:22:16;;;;;;;23.40;21.00;;;;;;;35.85;nan;97617.44;4846716;29;20046;-65
2023/08/21 09:25:10;;;;;;;22.65;19.85;;;;;;;35.90;nan;97605.25;4849156;29;20681;-65
2023/08/21 09:27:40;;;;;;;21.98;19.60;;;;;;;35.89;nan;97609.19;4849214;29;20049;-66
2023/08/21 09:30:15;;;;;;;24.15;19.73;;;;;;;35.93;nan;97598.97;4832355;29;20165;-64
2023/08/21 09:33:03;;;;;;;23.23;19.73;;;;;;;35.95;nan;97593.84;4850348;29;20077;-66
2023/08/21 09:35:33;;;;;;;22.75;18.90;;;;;;;35.99;nan;97589.94;4845156;29;20133;-65
2023/08/21 09:38:04;;;;;;;25.48;18.52;;;;;;;36.00;nan;97599.00;4846837;29;20540;-65
2023/08/21 09:40:34;;;;;;;21.57;19.27;;;;;;;35.94;nan;97587.56;4511433;29;10000131;-65
2023/08/21 09:43:04;;;;;;;22.15;17.90;;;;;;;35.90;nan;97591.47;4832492;29;20080;-65
2023/08/21 09:45:34;;;;;;;19.55;17.52;;;;;;;36.00;nan;97593.50;4825870;29;20136;-66
2023/08/21 09:48:05;;;;;;;24.10;18.08;;;;;;;36.00;nan;97594.28;4847095;29;20053;-66
2023/08/21 09:50:35;;;;;;;20.63;18.38;;;;;;;35.98;nan;97582.09;4846692;29;20134;-65
2023/08/21 09:53:08;;;;;;;24.85;17.77;;;;;;;35.89;nan;97585.16;4851967;29;20452;-65
2023/08/21 09:55:40;;;;;;;22.27;17.90;;;;;;;35.83;nan;97577.66;4835030;29;20521;-64
2023/08/21 09:58:11;;;;;;;22.48;16.55;;;;;;;35.75;nan;97576.84;4851142;29;20289;-64
2023/08/21 10:00:41;;;;;;;22.40;17.80;;;;;;;35.77;nan;97581.94;4852173;29;20064;-66
2023/08/21 10:03:12;;;;;;;19.95;15.90;;;;;;;35.78;nan;97578.03;4834163;29;20164;-66
2023/08/21 10:05:42;;;;;;;22.65;14.98;;;;;;;35.86;nan;97572.16;4499171;29;10000458;-66
2023/08/21 10:08:15;;;;;;;21.55;15.95;;;;;;;35.87;nan;97572.94;4852198;29;20049;-65
2023/08/21 10:10:44;;;;;;;24.20;15.07;;;;;;;35.84;nan;97577.28;4854234;29;20470;-66
2023/08/21 10:13:14;;;;;;;22.20;16.45;;;;;;;35.87;nan;97573.75;4855019;29;20056;-65
2023/08/21 10:15:45;;;;;;;22.98;15.00;;;;;;;35.86;nan;97569.41;4857490;29;20060;-65
2023/08/21 10:18:24;;;;;;;26.98;16.50;;;;;;;35.80;nan;97564.66;4855588;29;20060;-65
2023/08/21 10:20:54;;;;;;;20.15;16.42;;;;;;;35.79;nan;97563.88;4851418;29;20085;-64
2023/08/21 10:23:29;;;;;;;18.55;15.60;;;;;;;35.71;nan;97558.72;4849627;29;20061;-65
2023/08/21 10:26:00;;;;;;;17.33;14.88;;;;;;;35.53;nan;97562.13;4854436;29;20141;-65
2023/08/21 10:28:50;;;;;;;18.40;15.70;;;;;;;35.45;nan;97557.72;4842249;29;20154;-66
2023/08/21 10:31:34;;;;;;;27.35;17.73;;;;;;;35.37;nan;97564.34;4855586;29;20419;-66
2023/08/21 10:34:12;;;;;;;21.00;16.27;;;;;;;35.29;nan;97559.19;4849516;29;20041;-65
2023/08/21 10:36:45;;;;;;;24.98;17.08;;;;;;;35.25;nan;97550.91;4852057;29;20055;-65
2023/08/21 10:39:25;;;;;;;20.67;16.63;;;;;;;35.18;nan;97553.63;4853274;29;20596;-66
2023/08/21 10:41:57;;;;;;;20.95;17.08;;;;;;;35.13;nan;97556.69;4852669;29;20053;-66
2023/08/21 10:44:42;;;;;;;18.88;16.27;;;;;;;35.13;nan;97551.19;4853392;29;20052;-66
2023/08/21 10:47:23;;;;;;;21.67;16.77;;;;;;;35.09;nan;97556.66;4863837;29;20053;-66
2023/08/21 10:49:55;;;;;;;26.40;16.65;;;;;;;35.04;nan;97557.00;4853262;29;20057;-66
2023/08/21 10:52:27;;;;;;;22.80;16.42;;;;;;;35.00;nan;97555.41;4857235;29;20441;-67
2023/08/21 10:54:59;;;;;;;19.13;15.88;;;;;;;34.90;nan;97551.38;4848782;29;20081;-66
2023/08/21 10:57:31;;;;;;;24.77;17.10;;;;;;;34.80;nan;97548.53;4852714;29;20470;-66
2023/08/21 11:00:09;;;;;;;22.42;16.13;;;;;;;34.72;nan;97548.47;4837517;29;20484;-66
2023/08/21 11:02:41;;;;;;;30.80;17.25;;;;;;;34.75;nan;97548.88;4848791;29;20409;-66
2023/08/21 11:05:12;;;;;;;33.47;18.23;;;;;;;34.79;nan;97536.72;4850211;29;20069;-66
2023/08/21 11:07:46;;;;;;;26.45;20.55;;;;;;;34.80;nan;97543.81;4848432;29;20064;-65
2023/08/21 11:10:24;;;;;;;29.40;24.73;;;;;;;34.76;nan;97545.75;4863049;29;20068;-66
2023/08/21 11:12:57;;;;;;;27.40;24.58;;;;;;;34.62;nan;97531.81;4847553;29;20168;-65
2023/08/21 11:15:29;;;;;;;30.38;27.00;;;;;;;34.55;nan;97531.78;4849373;29;20501;-66
2023/08/21 11:18:03;;;;;;;31.98;27.10;;;;;;;34.47;nan;97536.41;4848650;29;20049;-66
2023/08/21 11:20:36;;;;;;;30.95;27.52;;;;;;;34.51;nan;97531.75;4849486;29;20053;-65
2023/08/21 11:23:07;;;;;;;30.02;26.92;;;;;;;34.53;nan;97517.59;4849296;29;20049;-66
2023/08/21 11:25:39;;;;;;;31.98;27.35;;;;;;;34.49;nan;97528.56;4851578;29;20048;-65
2023/08/21 11:28:09;;;;;;;31.33;28.10;;;;;;;34.46;nan;97529.31;4854636;29;20053;-65
2023/08/21 11:30:38;;;;;;;27.80;24.90;;;;;;;34.43;nan;97521.03;4855792;29;20041;-65
2023/08/21 11:33:10;;;;;;;31.73;27.08;;;;;;;34.38;nan;97519.44;4853522;29;20048;-66
2023/08/21 11:35:40;;;;;;;29.02;25.88;;;;;;;34.35;nan;97509.16;4849046;29;20053;-66
2023/08/21 11:38:20;;;;;;;29.83;26.63;;;;;;;34.33;nan;97507.97;4846074;29;20773;-65
2023/08/21 11:40:55;;;;;;;28.13;25.33;;;;;;;34.27;nan;97500.06;4852502;29;20056;-65
2023/08/21 11:43:41;;;;;;;30.80;27.52;;;;;;;34.29;nan;97505.19;4846947;29;20064;-66
2023/08/21 11:46:11;;;;;;;31.63;25.38;;;;;;;34.28;nan;97500.84;4841338;29;20049;-66
2023/08/21 11:48:42;;;;;;;34.38;26.55;;;;;;;34.23;nan;97499.22;4843445;29;20056;-66
2023/08/21 11:51:11;;;;;;;28.83;25.90;;;;;;;34.18;nan;97491.31;4843944;29;20494;-66
2023/08/21 11:53:42;;;;;;;33.40;26.92;;;;;;;34.16;nan;97496.44;4845645;29;20136;-66
2023/08/21 11:56:17;;;;;;;37.15;27.88;;;;;;;34.13;nan;97496.34;4837550;29;20638;-67
2023/08/21 11:58:50;;;;;;;27.60;24.77;;;;;;;34.08;nan;97497.47;4834172;29;20145;-69